Time;durP1;ratioP1;P1;durP2;ratioP2;P2;SDS_P1;SDS_P2;PMS_P1;PMS_P2;Temp;Humidity;BMP_temperature;BMP_pressure;BME280_temperature;BME280_humidity;BME280_pressure;Samples;Min_cycle;Max_cycle;Signal;HPM_P1;HPM_P2
2022/04/11 00:01:50;;;;;;;9.67;5.90;;;;;;;-146.34;100.00;58536.06;5036715;28;20037;-74
2022/04/11 00:04:15;;;;;;;8.53;5.03;;;;;;;-146.34;100.00;58536.06;5031590;28;20111;-75
2022/04/11 00:06:40;;;;;;;13.63;5.33;;;;;;;-146.34;100.00;58536.06;5033350;28;20128;-74
2022/04/11 00:09:06;;;;;;;12.40;5.97;;;;;;;-146.34;100.00;58536.06;5034159;28;20041;-75
2022/04/11 00:11:31;;;;;;;13.27;5.77;;;;;;;-146.34;100.00;58536.06;5034338;28;20389;-74
2022/04/11 00:13:56;;;;;;;12.60;5.37;;;;;;;-146.34;100.00;58536.06;5032981;28;20036;-75
2022/04/11 00:16:22;;;;;;;15.40;6.40;;;;;;;-146.34;100.00;58536.06;5034321;28;20109;-75
2022/04/11 00:18:48;;;;;;;13.20;5.83;;;;;;;-146.34;100.00;58536.06;5033128;28;20037;-75
2022/04/11 00:21:13;;;;;;;8.37;5.40;;;;;;;-146.34;100.00;58536.06;5033824;28;20021;-74
2022/04/11 00:23:38;;;;;;;9.83;5.40;;;;;;;-146.34;100.00;58536.06;5039313;28;20618;-75
2022/04/11 00:26:04;;;;;;;10.40;4.83;;;;;;;-146.34;100.00;58536.06;5032365;28;20037;-75
2022/04/11 00:28:30;;;;;;;12.90;5.73;;;;;;;-146.34;100.00;58536.06;5034338;28;20041;-74
2022/04/11 00:30:55;;;;;;;13.37;4.83;;;;;;;-146.34;100.00;58536.06;5033116;28;20585;-75
2022/04/11 00:33:20;;;;;;;12.70;5.03;;;;;;;-146.34;100.00;58536.06;5033526;28;20056;-74
2022/04/11 00:35:46;;;;;;;10.10;5.03;;;;;;;-146.34;100.00;58536.06;5032567;28;20543;-74
2022/04/11 00:38:12;;;;;;;12.20;4.90;;;;;;;-146.34;100.00;58536.06;5032304;28;20042;-75
2022/04/11 00:40:37;;;;;;;7.73;4.73;;;;;;;-146.34;100.00;58536.06;5032346;28;20397;-75
2022/04/11 00:43:03;;;;;;;10.40;4.80;;;;;;;-146.34;100.00;58536.06;5033445;28;20047;-75
2022/04/11 00:45:28;;;;;;;11.27;5.20;;;;;;;-146.34;100.00;58536.06;5052625;28;20369;-74
2022/04/11 00:47:53;;;;;;;9.20;4.90;;;;;;;-146.34;100.00;58536.06;5031711;28;20819;-74
2022/04/11 00:50:19;;;;;;;12.57;5.00;;;;;;;-146.34;100.00;58536.06;5032420;28;20120;-75
2022/04/11 00:52:49;;;;;;;11.40;5.03;;;;;;;-146.34;100.00;58536.06;5033756;28;20036;-75
2022/04/11 00:55:16;;;;;;;7.83;4.53;;;;;;;-146.34;100.00;58536.06;5032973;28;20072;-74
2022/04/11 00:57:42;;;;;;;11.40;4.80;;;;;;;-146.34;100.00;58536.06;5040090;28;20021;-74
2022/04/11 01:00:09;;;;;;;9.50;4.60;;;;;;;-146.34;100.00;58536.06;5031692;28;20511;-75
2022/04/11 01:02:34;;;;;;;12.17;5.93;;;;;;;-146.34;100.00;58536.06;5037743;28;20025;-75
2022/04/11 01:05:00;;;;;;;9.27;5.40;;;;;;;-146.34;100.00;58536.06;5032401;28;20527;-74
2022/04/11 01:07:26;;;;;;;10.40;5.13;;;;;;;-146.34;100.00;58536.06;5031005;28;20056;-75
2022/04/11 01:09:52;;;;;;;8.40;4.33;;;;;;;-146.34;100.00;58536.06;5026798;28;20037;-75
2022/04/11 01:12:18;;;;;;;9.03;4.50;;;;;;;-146.34;100.00;58536.06;5012745;28;20021;-74
2022/04/11 01:14:43;;;;;;;9.13;4.63;;;;;;;-146.34;100.00;58536.06;5011901;28;20026;-74
2022/04/11 01:17:10;;;;;;;10.37;4.60;;;;;;;-146.34;100.00;58536.06;5032888;28;20481;-75
2022/04/11 01:19:35;;;;;;;6.20;4.10;;;;;;;-146.34;100.00;58536.06;5032601;28;20076;-74
2022/04/11 01:22:01;;;;;;;7.80;4.50;;;;;;;-146.34;100.00;58536.06;5031175;28;20021;-75
2022/04/11 01:24:28;;;;;;;10.47;4.67;;;;;;;-146.34;100.00;58536.06;5031623;28;20406;-75
2022/04/11 01:26:54;;;;;;;9.47;4.97;;;;;;;-146.34;100.00;58536.06;5032085;28;20477;-74
2022/04/11 01:29:21;;;;;;;8.73;4.37;;;;;;;-146.34;100.00;58536.06;5032062;28;20041;-74
2022/04/11 01:31:47;;;;;;;10.00;5.00;;;;;;;-146.34;100.00;58536.06;5048500;28;20142;-74
2022/04/11 01:34:13;;;;;;;7.93;4.67;;;;;;;-146.34;100.00;58536.06;5032630;28;20085;-75
2022/04/11 01:36:39;;;;;;;7.27;4.70;;;;;;;-146.34;100.00;58536.06;5034358;28;20032;-74
2022/04/11 01:39:05;;;;;;;10.10;4.70;;;;;;;-146.34;100.00;58536.06;5038484;28;20036;-74
2022/04/11 01:41:30;;;;;;;8.93;4.23;;;;;;;-146.34;100.00;58536.06;5032917;28;20104;-74
2022/04/11 01:43:56;;;;;;;9.63;5.77;;;;;;;-146.34;100.00;58536.06;5031870;28;20159;-77
2022/04/11 01:46:21;;;;;;;11.70;4.70;;;;;;;-146.34;100.00;58536.06;5031496;28;20120;-75
2022/04/11 01:48:47;;;;;;;9.03;5.17;;;;;;;-146.34;100.00;58536.06;5032673;28;20033;-75
2022/04/11 01:51:13;;;;;;;13.57;5.20;;;;;;;-146.34;100.00;58536.06;5031504;28;20021;-74
2022/04/11 01:53:39;;;;;;;10.67;4.67;;;;;;;-146.34;100.00;58536.06;5031203;28;20401;-74
2022/04/11 01:56:05;;;;;;;11.53;5.27;;;;;;;-146.34;100.00;58536.06;5030573;28;20029;-75
2022/04/11 01:58:30;;;;;;;8.13;4.67;;;;;;;-146.34;100.00;58536.06;5014317;28;20042;-75
2022/04/11 02:00:58;;;;;;;11.13;5.10;;;;;;;-146.34;100.00;58536.06;5031346;28;20033;-75
2022/04/11 02:03:24;;;;;;;11.53;4.97;;;;;;;-146.34;100.00;58536.06;5031736;28;20025;-74
2022/04/11 02:05:50;;;;;;;7.87;4.90;;;;;;;-146.34;100.00;58536.06;5030202;28;20030;-74
2022/04/11 02:08:15;;;;;;;16.00;5.33;;;;;;;-146.34;100.00;58536.06;5031882;28;20033;-74
2022/04/11 02:10:41;;;;;;;10.67;4.73;;;;;;;-146.34;100.00;58536.06;5031761;28;20030;-74
2022/04/11 02:13:07;;;;;;;10.70;5.40;;;;;;;-146.34;100.00;58536.06;5030719;28;20473;-74
2022/04/11 02:15:32;;;;;;;10.17;4.67;;;;;;;-146.34;100.00;58536.06;5031198;28;20036;-75
2022/04/11 02:17:58;;;;;;;9.00;4.77;;;;;;;-146.34;100.00;58536.06;5030126;28;20397;-74
2022/04/11 02:20:23;;;;;;;9.27;4.80;;;;;;;-146.34;100.00;58536.06;5031021;28;20513;-75
2022/04/11 02:22:53;;;;;;;9.40;5.83;;;;;;;-146.34;100.00;58536.06;5030650;28;20087;-74
2022/04/11 02:25:21;;;;;;;11.63;5.40;;;;;;;-146.34;100.00;58536.06;5042841;28;20041;-74
2022/04/11 02:27:47;;;;;;;15.17;5.70;;;;;;;-146.34;100.00;58536.06;5032945;28;20030;-74
2022/04/11 02:30:14;;;;;;;9.37;5.77;;;;;;;-146.34;100.00;58536.06;5029939;28;20489;-75
2022/04/11 02:32:39;;;;;;;14.47;5.77;;;;;;;-146.34;100.00;58536.06;5013882;28;20026;-74
2022/04/11 02:35:05;;;;;;;12.47;5.60;;;;;;;-146.34;100.00;58536.06;5029996;28;20117;-74
2022/04/11 02:37:31;;;;;;;8.57;5.57;;;;;;;-146.34;100.00;58536.06;5030336;28;20117;-75
2022/04/11 02:39:57;;;;;;;9.13;5.70;;;;;;;-146.34;100.00;58536.06;5029404;28;20056;-75
2022/04/11 02:42:24;;;;;;;11.43;5.37;;;;;;;-146.34;100.00;58536.06;5030324;28;20556;-74
2022/04/11 02:44:50;;;;;;;10.53;5.93;;;;;;;-146.34;100.00;58536.06;5031698;28;20033;-75
2022/04/11 02:47:16;;;;;;;8.43;5.30;;;;;;;-146.34;100.00;58536.06;5012688;28;20508;-75
2022/04/11 02:49:41;;;;;;;10.90;5.57;;;;;;;-146.34;100.00;58536.06;5029921;28;20029;-74
2022/04/11 02:52:06;;;;;;;10.27;6.17;;;;;;;-146.34;100.00;58536.06;5033021;28;20021;-75
2022/04/11 02:54:32;;;;;;;11.43;6.10;;;;;;;-146.34;100.00;58536.06;5030992;28;20134;-74
2022/04/11 02:56:57;;;;;;;15.60;5.43;;;;;;;-146.34;100.00;58536.06;5030967;28;20029;-74
2022/04/11 02:59:23;;;;;;;10.00;5.60;;;;;;;-146.34;100.00;58536.06;5038337;28;20029;-75
2022/04/11 03:01:49;;;;;;;13.30;6.30;;;;;;;-146.34;100.00;58536.06;5041109;28;20028;-74
2022/04/11 03:04:18;;;;;;;10.60;5.60;;;;;;;-146.34;100.00;58536.06;5035236;28;20060;-75
2022/04/11 03:06:43;;;;;;;8.73;5.97;;;;;;;-146.34;100.00;58536.06;5032712;28;20052;-75
2022/04/11 03:09:09;;;;;;;11.47;7.33;;;;;;;-146.34;100.00;58536.06;5029485;28;20486;-74
2022/04/11 03:11:34;;;;;;;11.20;6.07;;;;;;;-146.34;100.00;58536.06;5030238;28;20103;-74
2022/04/11 03:14:00;;;;;;;10.87;6.07;;;;;;;-146.34;100.00;58536.06;5044402;28;20055;-74
2022/04/11 03:16:25;;;;;;;12.67;6.73;;;;;;;-146.34;100.00;58536.06;5035452;28;20531;-74
2022/04/11 03:18:51;;;;;;;14.87;7.07;;;;;;;-146.34;100.00;58536.06;5031106;28;20033;-74
2022/04/11 03:21:17;;;;;;;12.43;6.53;;;;;;;-146.34;100.00;58536.06;5029203;28;20104;-74
2022/04/11 03:23:42;;;;;;;14.33;6.53;;;;;;;-146.34;100.00;58536.06;5031174;28;20049;-74
2022/04/11 03:26:07;;;;;;;13.50;6.23;;;;;;;-146.34;100.00;58536.06;5030279;28;20029;-74
2022/04/11 03:28:33;;;;;;;13.90;7.83;;;;;;;-146.34;100.00;58536.06;5030598;28;20033;-74
2022/04/11 03:30:59;;;;;;;15.47;6.90;;;;;;;-146.34;100.00;58536.06;5030236;28;20045;-74
2022/04/11 03:33:24;;;;;;;12.77;6.30;;;;;;;-146.34;100.00;58536.06;5030633;28;20095;-74
2022/04/11 03:35:50;;;;;;;9.80;6.50;;;;;;;-146.34;100.00;58536.06;5031785;28;20026;-76
2022/04/11 03:38:16;;;;;;;18.00;8.10;;;;;;;-146.34;100.00;58536.06;5030703;28;20061;-74
2022/04/11 03:40:41;;;;;;;12.33;7.00;;;;;;;-146.34;100.00;58536.06;5034356;28;20036;-74
2022/04/11 03:43:07;;;;;;;16.43;7.20;;;;;;;-146.34;100.00;58536.06;5034045;28;20108;-74
2022/04/11 03:45:32;;;;;;;13.57;6.63;;;;;;;-146.34;100.00;58536.06;5033796;28;20030;-74
2022/04/11 03:47:57;;;;;;;11.23;6.80;;;;;;;-146.34;100.00;58536.06;5033113;28;20032;-74
2022/04/11 03:50:23;;;;;;;13.07;7.40;;;;;;;-146.34;100.00;58536.06;5049455;28;20025;-74
2022/04/11 03:52:49;;;;;;;11.83;6.83;;;;;;;-146.34;100.00;58536.06;5040902;28;20039;-74
2022/04/11 03:55:14;;;;;;;14.67;7.87;;;;;;;-146.34;100.00;58536.06;5034683;28;20108;-74
2022/04/11 03:57:40;;;;;;;13.47;7.07;;;;;;;-146.34;100.00;58536.06;5032543;28;20044;-74
2022/04/11 04:00:06;;;;;;;12.70;6.93;;;;;;;-146.34;100.00;58536.06;5033160;28;20472;-74
2022/04/11 04:02:31;;;;;;;14.17;7.20;;;;;;;-146.34;100.00;58536.06;5033639;28;20053;-74
2022/04/11 04:04:56;;;;;;;12.20;7.33;;;;;;;-146.34;100.00;58536.06;5034154;28;20036;-74
2022/04/11 04:07:22;;;;;;;14.33;7.27;;;;;;;-146.34;100.00;58536.06;5034589;28;20032;-74
2022/04/11 04:09:47;;;;;;;18.43;7.97;;;;;;;-146.34;100.00;58536.06;5033281;28;20516;-74
2022/04/11 04:12:13;;;;;;;17.33;7.77;;;;;;;-146.34;100.00;58536.06;5032693;28;20029;-74
2022/04/11 04:14:39;;;;;;;14.27;7.83;;;;;;;-146.34;100.00;58536.06;5033734;28;20036;-74
2022/04/11 04:17:04;;;;;;;16.53;8.87;;;;;;;-146.34;100.00;58536.06;5032690;28;20029;-74
2022/04/11 04:19:30;;;;;;;14.83;7.80;;;;;;;-146.34;100.00;58536.06;5032200;28;20040;-74
2022/04/11 04:21:55;;;;;;;14.70;7.43;;;;;;;-146.34;100.00;58536.06;5034252;28;20029;-74
2022/04/11 04:24:22;;;;;;;12.17;7.47;;;;;;;-146.34;100.00;58536.06;5032539;28;20045;-75
2022/04/11 04:26:49;;;;;;;15.53;7.80;;;;;;;-146.34;100.00;58536.06;5033308;28;20481;-75
2022/04/11 04:29:16;;;;;;;12.97;7.60;;;;;;;-146.34;100.00;58536.06;5046525;28;20022;-75
2022/04/11 04:31:42;;;;;;;15.70;7.00;;;;;;;-146.34;100.00;58536.06;5012762;28;20026;-74
2022/04/11 04:34:07;;;;;;;16.87;8.53;;;;;;;-146.34;100.00;58536.06;5031389;28;20033;-75
2022/04/11 04:36:33;;;;;;;13.23;8.13;;;;;;;-146.34;100.00;58536.06;5033034;28;20041;-74
2022/04/11 04:38:58;;;;;;;16.77;7.40;;;;;;;-146.34;100.00;58536.06;5032893;28;20033;-74
2022/04/11 04:41:23;;;;;;;14.33;8.40;;;;;;;-146.34;100.00;58536.06;5034272;28;20580;-74
2022/04/11 04:43:49;;;;;;;14.57;8.30;;;;;;;-146.34;100.00;58536.06;5034051;28;20428;-74
2022/04/11 04:46:14;;;;;;;15.10;8.37;;;;;;;-146.34;100.00;58536.06;5032427;28;20504;-75
2022/04/11 04:48:40;;;;;;;11.93;7.73;;;;;;;-146.34;100.00;58536.06;5015911;28;20454;-75
2022/04/11 04:51:08;;;;;;;13.13;8.30;;;;;;;-146.34;100.00;58536.06;5030870;28;20033;-75
2022/04/11 04:53:33;;;;;;;15.13;8.20;;;;;;;-146.34;100.00;58536.06;5032365;28;20525;-75
2022/04/11 04:55:59;;;;;;;15.50;8.03;;;;;;;-146.34;100.00;58536.06;5033337;28;20128;-74
2022/04/11 04:58:24;;;;;;;21.57;8.83;;;;;;;-146.34;100.00;58536.06;5033787;28;20393;-74
2022/04/11 05:00:49;;;;;;;16.03;8.13;;;;;;;-146.34;100.00;58536.06;5032632;28;20112;-78
2022/04/11 05:03:15;;;;;;;11.20;7.27;;;;;;;-146.34;100.00;58536.06;5044271;28;20115;-74
2022/04/11 05:05:40;;;;;;;18.70;8.87;;;;;;;-146.34;100.00;58536.06;5053877;28;20060;-75
2022/04/11 05:08:06;;;;;;;15.20;7.80;;;;;;;-146.34;100.00;58536.06;5031184;28;20033;-76
2022/04/11 05:10:31;;;;;;;14.00;8.60;;;;;;;-146.34;100.00;58536.06;5033809;28;20029;-75
2022/04/11 05:12:57;;;;;;;13.83;8.27;;;;;;;-146.34;100.00;58536.06;5031617;28;20028;-75
2022/04/11 05:15:23;;;;;;;13.67;8.70;;;;;;;-146.34;100.00;58536.06;5036076;28;20448;-75
2022/04/11 05:17:48;;;;;;;20.17;8.60;;;;;;;-146.34;100.00;58536.06;5033096;28;20037;-75
2022/04/11 05:20:14;;;;;;;22.23;9.43;;;;;;;-146.34;100.00;58536.06;5032006;28;20026;-75
2022/04/11 05:22:39;;;;;;;14.83;8.73;;;;;;;-146.34;100.00;58536.06;5031986;28;20549;-74
2022/04/11 05:25:05;;;;;;;15.53;8.93;;;;;;;-146.34;100.00;58536.06;5031407;28;20067;-74
2022/04/11 05:27:31;;;;;;;16.53;9.70;;;;;;;-146.34;100.00;58536.06;5031199;28;20520;-75
2022/04/11 05:29:56;;;;;;;15.90;10.13;;;;;;;-146.34;100.00;58536.06;5031796;28;20041;-74
2022/04/11 05:32:21;;;;;;;15.53;8.57;;;;;;;-146.34;100.00;58536.06;5031733;28;20022;-75
2022/04/11 05:34:47;;;;;;;15.73;8.50;;;;;;;-146.34;100.00;58536.06;5030329;28;20032;-75
2022/04/11 05:37:12;;;;;;;13.17;8.70;;;;;;;-146.34;100.00;58536.06;5032270;28;20033;-75
2022/04/11 05:39:38;;;;;;;17.80;9.07;;;;;;;-146.34;100.00;58536.06;5033068;28;20026;-74
2022/04/11 05:42:07;;;;;;;15.30;8.57;;;;;;;-146.34;100.00;58536.06;5030655;28;20099;-74
2022/04/11 05:44:33;;;;;;;15.30;8.83;;;;;;;-146.34;100.00;58536.06;5032286;28;20097;-74
2022/04/11 05:46:58;;;;;;;14.60;8.47;;;;;;;-146.34;100.00;58536.06;5031845;28;20068;-75
2022/04/11 05:49:23;;;;;;;14.47;8.00;;;;;;;-146.34;100.00;58536.06;5030932;28;20152;-75
2022/04/11 05:51:50;;;;;;;19.27;9.93;;;;;;;-146.34;100.00;58536.06;5031784;28;20398;-75
2022/04/11 05:54:15;;;;;;;16.17;8.67;;;;;;;-146.34;100.00;58536.06;5030621;28;20479;-75
2022/04/11 05:56:41;;;;;;;15.30;8.50;;;;;;;-146.34;100.00;58536.06;5030738;28;20036;-75
2022/04/11 05:59:08;;;;;;;18.70;9.80;;;;;;;-146.34;100.00;58536.06;5031153;28;20469;-75
2022/04/11 06:01:36;;;;;;;20.07;10.30;;;;;;;-146.34;100.00;58536.06;5032757;28;20477;-75
2022/04/11 06:04:02;;;;;;;13.80;8.00;;;;;;;-146.34;100.00;58536.06;5029859;28;20029;-75
2022/04/11 06:06:27;;;;;;;17.80;9.70;;;;;;;-146.34;100.00;58536.06;5030861;28;20405;-75
2022/04/11 06:08:53;;;;;;;15.23;8.80;;;;;;;-146.34;100.00;58536.06;5030679;28;20405;-75
2022/04/11 06:11:18;;;;;;;16.13;9.83;;;;;;;-146.34;100.00;58536.06;5040933;28;20098;-75
2022/04/11 06:13:45;;;;;;;17.33;9.00;;;;;;;-146.34;100.00;58536.06;5041600;28;20167;-74
2022/04/11 06:16:12;;;;;;;19.17;10.63;;;;;;;-146.34;100.00;58536.06;5028696;28;20472;-75
2022/04/11 06:18:37;;;;;;;20.97;9.37;;;;;;;-146.34;100.00;58536.06;5031874;28;20032;-74
2022/04/11 06:21:03;;;;;;;24.50;10.20;;;;;;;-146.34;100.00;58536.06;5031014;28;20029;-74
2022/04/11 06:23:28;;;;;;;16.00;9.17;;;;;;;-146.34;100.00;58536.06;5030593;28;20069;-75
2022/04/11 06:25:53;;;;;;;17.13;8.37;;;;;;;-146.34;100.00;58536.06;5030823;28;20488;-74
2022/04/11 06:28:19;;;;;;;18.87;9.13;;;;;;;-146.34;100.00;58536.06;5030062;28;20033;-75
2022/04/11 06:30:44;;;;;;;19.70;10.23;;;;;;;-146.34;100.00;58536.06;5029590;28;20492;-75
2022/04/11 06:33:10;;;;;;;18.00;9.20;;;;;;;-146.34;100.00;58536.06;5029818;28;20032;-75
2022/04/11 06:35:35;;;;;;;16.60;9.57;;;;;;;-146.34;100.00;58536.06;5030388;28;20060;-74
2022/04/11 06:38:01;;;;;;;15.90;10.13;;;;;;;-146.34;100.00;58536.06;5031632;28;20091;-75
2022/04/11 06:40:26;;;;;;;15.83;8.80;;;;;;;-146.34;100.00;58536.06;5034222;28;20116;-75
2022/04/11 06:42:51;;;;;;;24.30;10.80;;;;;;;-146.34;100.00;58536.06;5030255;28;20080;-75
2022/04/11 06:45:17;;;;;;;21.47;9.97;;;;;;;-146.34;100.00;58536.06;5030388;28;20434;-74
2022/04/11 06:47:43;;;;;;;19.87;10.23;;;;;;;-146.34;100.00;58536.06;5032173;28;20480;-75
2022/04/11 06:50:08;;;;;;;21.73;10.17;;;;;;;-146.34;100.00;58536.06;5026720;28;20026;-74
2022/04/11 06:52:34;;;;;;;15.83;10.20;;;;;;;-146.34;100.00;58536.06;5025212;28;20051;-74
2022/04/11 06:54:59;;;;;;;18.50;9.70;;;;;;;-146.34;100.00;58536.06;5029800;28;20029;-74
2022/04/11 06:57:25;;;;;;;25.33;10.47;;;;;;;-146.34;100.00;58536.06;4975439;28;20477;-74
2022/04/11 06:59:53;;;;;;;22.63;9.97;;;;;;;-146.34;100.00;58536.06;5030857;28;20497;-74
2022/04/11 07:02:21;;;;;;;21.33;9.93;;;;;;;-146.34;100.00;58536.06;5028718;28;20036;-74
2022/04/11 07:04:46;;;;;;;20.80;9.17;;;;;;;-146.34;100.00;58536.06;5028539;28;20032;-74
2022/04/11 07:07:11;;;;;;;20.17;10.07;;;;;;;-146.34;100.00;58536.06;5026860;28;20029;-74
2022/04/11 07:09:37;;;;;;;17.07;9.83;;;;;;;-146.34;100.00;58536.06;5029540;28;20033;-74
2022/04/11 07:12:03;;;;;;;15.17;9.47;;;;;;;-146.34;100.00;58536.06;5028597;28;20029;-75
2022/04/11 07:14:29;;;;;;;21.20;9.43;;;;;;;-146.34;100.00;58536.06;5042142;28;20036;-74
2022/04/11 07:16:54;;;;;;;19.80;10.03;;;;;;;-146.34;100.00;58536.06;5032717;28;20029;-74
2022/04/11 07:19:20;;;;;;;17.20;10.10;;;;;;;-146.34;100.00;58536.06;5028438;28;20033;-73
2022/04/11 07:21:46;;;;;;;14.83;9.13;;;;;;;-146.34;100.00;58536.06;5030000;28;20036;-72
2022/04/11 07:24:12;;;;;;;19.87;9.67;;;;;;;-146.34;100.00;58536.06;5029809;28;20045;-72
2022/04/11 07:26:39;;;;;;;16.57;9.73;;;;;;;-146.34;100.00;58536.06;5034448;28;20405;-72
2022/04/11 07:29:04;;;;;;;20.00;9.07;;;;;;;-146.34;100.00;58536.06;5028459;28;20038;-72
2022/04/11 07:31:30;;;;;;;13.87;8.80;;;;;;;-146.34;100.00;58536.06;5030175;28;20108;-73
2022/04/11 07:33:55;;;;;;;14.67;8.53;;;;;;;-146.34;100.00;58536.06;5029668;28;20104;-72
2022/04/11 07:36:21;;;;;;;15.37;8.87;;;;;;;-146.34;100.00;58536.06;5029482;28;20547;-73
2022/04/11 07:38:46;;;;;;;11.10;7.57;;;;;;;-146.34;100.00;58536.06;5030471;28;20025;-72
2022/04/11 07:41:11;;;;;;;12.43;7.73;;;;;;;-146.34;100.00;58536.06;5027270;28;20392;-73
2022/04/11 07:43:37;;;;;;;12.33;7.23;;;;;;;-146.34;100.00;58536.06;5029236;28;20039;-71
2022/04/11 07:46:05;;;;;;;10.17;6.67;;;;;;;-146.34;100.00;58536.06;5030202;28;20413;-72
2022/04/11 07:48:31;;;;;;;12.73;6.67;;;;;;;-146.34;100.00;58536.06;5026822;28;20152;-72
2022/04/11 07:50:56;;;;;;;11.52;6.50;;;;;;;-146.34;100.00;58536.06;5027623;28;20071;-72
2022/04/11 07:53:22;;;;;;;12.80;6.93;;;;;;;-146.34;100.00;58536.06;5028876;28;20061;-72
2022/04/11 07:55:47;;;;;;;8.10;5.88;;;;;;;-146.34;100.00;58536.06;5028376;28;20797;-72
2022/04/11 07:58:15;;;;;;;8.10;5.90;;;;;;;-146.34;100.00;58536.06;5029701;28;20489;-72
2022/04/11 08:00:40;;;;;;;9.88;6.20;;;;;;;-146.34;100.00;58536.06;5034072;28;20033;-72
2022/04/11 08:03:06;;;;;;;8.32;5.50;;;;;;;-146.34;100.00;58536.06;5028896;28;20439;-72
2022/04/11 08:05:31;;;;;;;9.35;5.70;;;;;;;-146.34;100.00;58536.06;5028089;28;20498;-72
2022/04/11 08:07:56;;;;;;;10.70;6.13;;;;;;;-146.34;100.00;58536.06;5030121;28;20025;-72
2022/04/11 08:10:22;;;;;;;8.32;5.35;;;;;;;-146.34;100.00;58536.06;5031006;28;20393;-72
2022/04/11 08:12:59;;;;;;;9.75;5.68;;;;;;;-146.34;100.00;58536.06;5028773;28;20032;-72
2022/04/11 08:15:27;;;;;;;5.65;4.65;;;;;;;-146.34;100.00;58536.06;5029135;28;20111;-72
2022/04/11 08:17:56;;;;;;;8.88;5.30;;;;;;;-146.34;100.00;58536.06;5028593;28;20041;-72
2022/04/11 08:20:25;;;;;;;9.10;5.28;;;;;;;-146.34;100.00;58536.06;5027566;28;20461;-72
2022/04/11 08:22:51;;;;;;;6.15;4.93;;;;;;;-146.34;100.00;58536.06;5029383;28;20041;-72
2022/04/11 08:25:16;;;;;;;7.97;4.60;;;;;;;-146.34;100.00;58536.06;5028955;28;20442;-72
2022/04/11 08:27:43;;;;;;;9.15;4.80;;;;;;;-146.34;100.00;58536.06;5033871;28;20456;-72
2022/04/11 08:30:10;;;;;;;9.55;5.18;;;;;;;-146.34;100.00;58536.06;5032373;28;20029;-72
2022/04/11 08:32:48;;;;;;;6.80;4.47;;;;;;;-146.34;100.00;58536.06;5032381;28;20022;-72
2022/04/11 08:35:15;;;;;;;9.75;6.57;;;;;;;-146.34;100.00;58536.06;5032264;28;20029;-72
2022/04/11 08:37:41;;;;;;;9.57;5.40;;;;;;;-146.34;100.00;58536.06;5031267;28;20393;-72
2022/04/11 08:40:10;;;;;;;6.40;3.90;;;;;;;-146.34;100.00;58536.06;5039106;28;20020;-71
2022/04/11 08:42:37;;;;;;;7.57;4.05;;;;;;;-146.34;100.00;58536.06;5049179;28;20025;-72
2022/04/11 08:45:02;;;;;;;8.13;4.13;;;;;;;-146.34;100.00;58536.06;5032567;28;20025;-72
2022/04/11 08:47:28;;;;;;;4.95;4.05;;;;;;;-146.34;100.00;58536.06;5031204;28;20378;-72
2022/04/11 08:49:53;;;;;;;7.80;3.80;;;;;;;-146.34;100.00;58536.06;5033001;28;20469;-72
2022/04/11 08:52:19;;;;;;;10.20;4.32;;;;;;;-146.34;100.00;58536.06;5032043;28;20029;-72
2022/04/11 08:54:45;;;;;;;9.13;4.32;;;;;;;-146.34;100.00;58536.06;5032539;28;20044;-72
2022/04/11 08:57:11;;;;;;;7.18;4.00;;;;;;;-146.34;100.00;58536.06;5032361;28;20034;-72
2022/04/11 08:59:36;;;;;;;8.05;3.80;;;;;;;-146.34;100.00;58536.06;5033342;28;20029;-72
2022/04/11 09:02:08;;;;;;;5.43;4.20;;;;;;;-146.34;100.00;58536.06;5031158;28;20061;-72
2022/04/11 09:04:54;;;;;;;9.77;3.20;;;;;;;-146.34;100.00;58536.06;5033403;28;20033;-72
2022/04/11 09:07:20;;;;;;;7.88;4.45;;;;;;;-146.34;100.00;58536.06;5032320;28;20290;-72
2022/04/11 09:09:45;;;;;;;4.93;3.50;;;;;;;-146.34;100.00;58536.06;5032736;28;20033;-72
2022/04/11 09:12:16;;;;;;;9.63;4.32;;;;;;;-146.34;100.00;58536.06;5031459;28;20048;-72
2022/04/11 09:14:43;;;;;;;8.95;4.32;;;;;;;-146.34;100.00;58536.06;5031295;28;20052;-72
2022/04/11 09:17:09;;;;;;;6.72;3.78;;;;;;;-146.34;100.00;58536.06;5028945;28;20029;-73
2022/04/11 09:19:35;;;;;;;11.45;4.60;;;;;;;-146.34;100.00;58536.06;5033341;28;20470;-73
2022/04/11 09:22:01;;;;;;;5.63;3.67;;;;;;;-146.34;100.00;58536.06;5031448;28;20474;-74
2022/04/11 09:24:26;;;;;;;6.05;3.80;;;;;;;-146.34;100.00;58536.06;5017167;28;20099;-74
2022/04/11 09:26:55;;;;;;;8.07;3.60;;;;;;;-146.34;100.00;58536.06;5012711;28;20497;-74
2022/04/11 09:29:24;;;;;;;4.78;3.15;;;;;;;-146.34;100.00;58536.06;5031434;28;20029;-74
2022/04/11 09:31:51;;;;;;;4.78;3.38;;;;;;;-146.34;100.00;58536.06;5031647;28;20537;-74
2022/04/11 09:34:16;;;;;;;5.93;3.17;;;;;;;-146.34;100.00;58536.06;5030349;28;20025;-74
2022/04/11 09:37:01;;;;;;;4.15;3.00;;;;;;;-146.34;100.00;58536.06;5030600;28;20488;-74
2022/04/11 09:39:32;;;;;;;7.68;3.33;;;;;;;-146.34;100.00;58536.06;5019882;28;20033;-74
2022/04/11 09:41:58;;;;;;;7.00;2.72;;;;;;;-146.34;100.00;58536.06;5039336;28;20025;-74
2022/04/11 09:44:31;;;;;;;4.80;2.90;;;;;;;-146.34;100.00;58536.06;5037675;28;20105;-74
2022/04/11 09:47:02;;;;;;;6.47;3.10;;;;;;;-146.34;100.00;58536.06;5029473;28;20060;-74
2022/04/11 09:49:28;;;;;;;6.00;2.90;;;;;;;-146.34;100.00;58536.06;5029602;28;20390;-73
2022/04/11 09:52:17;;;;;;;7.35;3.50;;;;;;;-146.34;100.00;58536.06;5023447;28;20552;-73
2022/04/11 09:54:49;;;;;;;5.03;2.50;;;;;;;-146.34;100.00;58536.06;5029668;28;20056;-74
2022/04/11 09:57:18;;;;;;;5.72;2.50;;;;;;;-146.34;100.00;58536.06;5024992;28;20044;-74
2022/04/11 09:59:45;;;;;;;4.57;2.30;;;;;;;-146.34;100.00;58536.06;5029098;28;20507;-74
2022/04/11 10:02:11;;;;;;;7.63;3.33;;;;;;;-146.34;100.00;58536.06;5030534;28;20061;-74
2022/04/11 10:04:38;;;;;;;4.95;2.40;;;;;;;-146.34;100.00;58536.06;5029574;28;20072;-74
2022/04/11 10:07:04;;;;;;;4.95;2.83;;;;;;;-146.34;100.00;58536.06;5030123;28;20039;-73
2022/04/11 10:09:30;;;;;;;6.70;2.92;;;;;;;-146.34;100.00;58536.06;5015627;28;20036;-74
2022/04/11 10:11:56;;;;;;;4.38;3.05;;;;;;;-146.34;100.00;58536.06;5031573;28;20022;-74
2022/04/11 10:14:27;;;;;;;5.60;2.83;;;;;;;-146.34;100.00;58536.06;5030074;28;20025;-74
2022/04/11 10:17:00;;;;;;;6.27;3.67;;;;;;;-146.34;100.00;58536.06;5036686;28;20477;-74
2022/04/11 10:19:33;;;;;;;5.32;3.28;;;;;;;-146.34;100.00;58536.06;5030939;28;20283;-74
2022/04/11 10:22:04;;;;;;;4.43;2.80;;;;;;;-146.34;100.00;58536.06;5031161;28;20179;-73
2022/04/11 10:24:50;;;;;;;5.93;3.30;;;;;;;-146.34;100.00;58536.06;5043427;28;20045;-74
2022/04/11 10:27:22;;;;;;;7.50;3.38;;;;;;;-146.34;100.00;58536.06;5045726;28;20031;-74
2022/04/11 10:29:53;;;;;;;4.97;4.07;;;;;;;-146.34;100.00;58536.06;5029303;28;20044;-73
2022/04/11 10:32:26;;;;;;;9.02;3.30;;;;;;;-146.34;100.00;58536.06;5008354;28;20116;-73
2022/04/11 10:35:01;;;;;;;7.55;4.85;;;;;;;-146.34;100.00;58536.06;5050105;28;20025;-73
2022/04/11 10:37:28;;;;;;;4.53;3.25;;;;;;;-146.34;100.00;58536.06;5034263;28;20048;-73
2022/04/11 10:40:16;;;;;;;5.28;3.90;;;;;;;-146.34;100.00;58536.06;5034104;28;20339;-73
2022/04/11 10:43:04;;;;;;;4.78;3.03;;;;;;;-146.34;100.00;58536.06;5016523;28;20041;-73
2022/04/11 10:45:41;;;;;;;5.13;2.85;;;;;;;-146.34;100.00;58536.06;5017279;28;20029;-73
2022/04/11 10:48:08;;;;;;;5.28;3.13;;;;;;;-146.34;100.00;58536.06;5028333;28;20116;-73
2022/04/11 10:50:35;;;;;;;4.50;3.17;;;;;;;-146.34;100.00;58536.06;5032355;28;20036;-73
2022/04/11 10:53:09;;;;;;;6.88;3.42;;;;;;;-146.34;100.00;58536.06;5029160;28;20018;-73
2022/04/11 10:55:35;;;;;;;4.82;3.22;;;;;;;-146.34;100.00;58536.06;5030378;28;20033;-73
2022/04/11 10:58:02;;;;;;;5.68;3.22;;;;;;;-146.34;100.00;58536.06;5028178;28;20508;-73
2022/04/11 11:00:33;;;;;;;4.10;3.17;;;;;;;-146.34;100.00;58536.06;5031952;28;20033;-74
2022/04/11 11:03:01;;;;;;;4.68;3.17;;;;;;;-146.34;100.00;58536.06;5019083;28;20113;-74